Norwegian Jade — C6WK7 — position and weather

sailwx.info

Track history (hours):
 
Tides and Currents Weather Stations Pressure Air Temp Water Temp Dewpoint Dewpoint Depression Visibility Wind Speed Wind Dir Waves Ship Positions

Norwegian Jade

Last reported at 2019-Aug-23 22:00 UTC. Time now 2019-Aug-24 06:41 UTC.
Position N 36°18' E 021°48'.

Length 294 m; draft 8.5 m.

Type: Passenger vessel. MMSI: 308416000.

Wind from 200 at 5 knots

Barometer 1015.0 mb
Air temperature 26.0 ° C
Visibility: greater than 10.8 NM
Dewpoint 26.0 ° C
Water temperature 25.0 ° C

Date/timePositionNaut miles runAvg speedWind from/ knotsBaromVisibWave heightAir tempDewpointWater temp
2019-Aug-23 22:00N 36°18' E 021°48'29120.7 200 / 51015.010.8 26.026.025.0
2019-Aug-23 07:54N 37°49' E 016°01'820.4
2019-Aug-23 07:30N 37°51' E 015°51'1020.3
2019-Aug-23 07:01N 37°54' E 015°39'918.3
2019-Aug-23 06:30N 38°02' E 015°34'918.9
2019-Aug-23 06:01N 38°12' E 015°36'714.5
2019-Aug-23 05:31N 38°18' E 015°40'917.2
2019-Aug-23 05:00N 38°26' E 015°36'1120.7
2019-Aug-23 04:29N 38°36' E 015°30'1021.3
2019-Aug-23 04:00N 38°45' E 015°25'1121.1
2019-Aug-23 03:30N 38°54' E 015°17'6224.8
2019-Aug-23 01:00N 39°36' E 014°18'5 7.7 290 / 151019.010.8 25.025.025.0
2019-Aug-23 00:24N 39°41' E 014°18'820.7
2019-Aug-23 00:00N 39°46' E 014°11'1020.7
2019-Aug-22 23:31N 39°53' E 014°01'1020.9
2019-Aug-22 23:00N 40°01' E 013°52'1020.6
2019-Aug-22 22:31N 40°08' E 013°42'1020.8
2019-Aug-22 22:00N 40°15' E 013°33'1121.1
2019-Aug-22 21:30N 40°23' E 013°23'1121.5
2019-Aug-22 21:01N 40°31' E 013°13'1121.5
2019-Aug-22 20:31N 40°38' E 013°03'1121.5
2019-Aug-22 20:00N 40°46' E 012°53'1721.4
2019-Aug-22 19:13N 40°59' E 012°39'521.4
2019-Aug-22 19:00N 41°03' E 012°35'1121.4
2019-Aug-22 18:30N 41°11' E 012°27'1121.6
2019-Aug-22 18:00N 41°20' E 012°19'1121.6
2019-Aug-22 17:31N 41°29' E 012°11'1121.7
2019-Aug-22 17:01N 41°38' E 012°03'1121.4
2019-Aug-22 16:31N 41°47' E 011°55'1121.0
2019-Aug-22 16:00N 41°56' E 011°47'1019.2
2019-Aug-22 15:30N 42°04' E 011°41'4 0.5
2019-Aug-22 06:55N 42°06' E 011°46'0 0.0
2019-Aug-22 05:40N 42°06' E 011°46'0 0.0
2019-Aug-22 05:22N 42°06' E 011°46'2 0.9
2019-Aug-22 03:11N 42°06' E 011°44'2 9.4
2019-Aug-22 03:00N 42°05' E 011°42'612.2
2019-Aug-22 02:30N 42°01' E 011°36'816.3
2019-Aug-22 02:01N 42°01' E 011°25'816.6
2019-Aug-22 01:30N 42°03' E 011°14'916.7
2019-Aug-22 00:58N 42°04' E 011°02'916.5
2019-Aug-22 00:26N 42°09' E 010°52'717.1
2019-Aug-22 00:00N 42°14' E 010°46'917.6
2019-Aug-21 23:30N 42°21' E 010°38'917.8
2019-Aug-21 23:00N 42°27' E 010°30'9643.7
2019-Aug-21 23:00N 42°30' E 010°18'4 7.7 200 / 31019.010.8 25.025.025.0
2019-Aug-21 22:30N 42°33' E 010°21'917.3
2019-Aug-21 21:59N 42°39' E 010°11'817.0
2019-Aug-21 21:30N 42°44' E 010°03'816.7
2019-Aug-21 21:00N 42°53' E 010°02'918.0
2019-Aug-21 20:30N 43°02' E 010°04'917.8
2019-Aug-21 20:00N 43°10' E 010°06'917.6
2019-Aug-21 19:30N 43°19' E 010°08'917.4
2019-Aug-21 19:00N 43°28' E 010°10'612.4
2019-Aug-21 18:30N 43°32' E 010°16'1 2.8
2019-Aug-21 17:59N 43°33' E 010°18'0 0.0
2019-Aug-21 17:29N 43°33' E 010°18'0 0.0
2019-Aug-21 16:59N 43°33' E 010°18'0 0.0
2019-Aug-21 16:29N 43°33' E 010°18'0 0.0
2019-Aug-21 15:59N 43°33' E 010°18'0 0.0
2019-Aug-21 15:29N 43°33' E 010°18'0 0.0
2019-Aug-21 14:59N 43°33' E 010°18'0 0.0
2019-Aug-21 14:29N 43°33' E 010°18'0 0.0
2019-Aug-21 13:59N 43°33' E 010°18'0 0.0
2019-Aug-21 13:29N 43°33' E 010°18'0 0.0
2019-Aug-21 12:59N 43°33' E 010°18'0 0.0
2019-Aug-21 12:29N 43°33' E 010°18'0 0.0
2019-Aug-21 11:59N 43°33' E 010°18'0 0.0
2019-Aug-21 11:29N 43°33' E 010°18'0 0.0
2019-Aug-21 10:59N 43°33' E 010°18'0 0.0
2019-Aug-21 10:29N 43°33' E 010°18'0 0.0
2019-Aug-21 09:59N 43°33' E 010°18'0 0.0
2019-Aug-21 09:29N 43°33' E 010°18'0 0.0
2019-Aug-21 08:59N 43°33' E 010°18'0 0.0
2019-Aug-21 08:29N 43°33' E 010°18'0 0.0
2019-Aug-21 07:59N 43°33' E 010°18'0 0.0
2019-Aug-21 07:29N 43°33' E 010°18'0 0.0
2019-Aug-21 06:59N 43°33' E 010°18'0 0.0
2019-Aug-21 06:29N 43°33' E 010°18'0 0.3
2019-Aug-21 06:01N 43°33' E 010°18'3 5.7
2019-Aug-21 05:31N 43°31' E 010°15'917.2
2019-Aug-21 05:01N 43°23' E 010°10'1122.4
2019-Aug-21 04:31N 43°12' E 010°07'1223.1
2019-Aug-21 04:01N 43°01' E 010°05'1223.0
2019-Aug-21 03:30N 42°50' E 010°02'918.1
2019-Aug-21 03:00N 42°41' E 010°06'1121.2
2019-Aug-21 02:31N 42°35' E 010°18'1020.5
2019-Aug-21 02:01N 42°28' E 010°28'1121.0
2019-Aug-21 01:31N 42°21' E 010°38'1020.9
2019-Aug-21 01:00N 42°14' E 010°48'8495.7
2019-Aug-21 01:00N 42°06' E 010°48'815.5 100 / 51019.0 24.024.025.0
2019-Aug-21 00:31N 42°06' E 010°58'1121.3
2019-Aug-21 00:00N 41°58' E 011°08'1021.2
2019-Aug-20 23:31N 41°51' E 011°18'1121.2
2019-Aug-20 23:01N 41°44' E 011°29'1121.1
2019-Aug-20 22:31N 41°37' E 011°39'1121.1
2019-Aug-20 22:01N 41°30' E 011°50'1121.1
2019-Aug-20 21:31N 41°23' E 012°00'1121.0
2019-Aug-20 21:01N 41°16' E 012°11'1020.9
2019-Aug-20 20:31N 41°09' E 012°21'1020.8
2019-Aug-20 20:00N 41°02' E 012°31'2020.5
2019-Aug-20 19:02N 40°49' E 012°52'020.9
2019-Aug-20 19:00N 40°49' E 012°53'1020.6
2019-Aug-20 18:31N 40°45' E 013°05'1020.5
2019-Aug-20 18:00N 40°41' E 013°18'1720.3
2019-Aug-20 17:11N 40°39' E 013°40'320.1
2019-Aug-20 17:00N 40°39' E 013°44'1020.1
2019-Aug-20 16:30N 40°39' E 013°58'918.9
2019-Aug-20 16:01N 40°43' E 014°09'917.0
2019-Aug-20 15:30N 40°49' E 014°17'2 3.7
2019-Aug-20 15:00N 40°51' E 014°16'0 0.0
2019-Aug-20 14:30N 40°51' E 014°16'0 0.0
2019-Aug-20 14:00N 40°51' E 014°16'0 0.0
2019-Aug-20 13:27N 40°51' E 014°16'0 0.0
2019-Aug-20 12:57N 40°51' E 014°16'0 0.0
2019-Aug-20 12:30N 40°51' E 014°16'0 0.0
2019-Aug-20 12:00N 40°51' E 014°16'0 0.0
2019-Aug-20 11:30N 40°51' E 014°16'0 0.0
2019-Aug-20 11:00N 40°51' E 014°16'0 0.0
2019-Aug-20 10:30N 40°51' E 014°16'0 0.0
2019-Aug-20 10:00N 40°51' E 014°16'0 0.0
2019-Aug-20 09:30N 40°51' E 014°16'0 0.0
2019-Aug-20 09:00N 40°51' E 014°16'0 0.0
2019-Aug-20 08:30N 40°51' E 014°16'0 0.0
2019-Aug-20 08:00N 40°51' E 014°16'0 0.0
2019-Aug-20 07:30N 40°51' E 014°16'0 0.0
2019-Aug-20 07:00N 40°51' E 014°16'0 0.0
2019-Aug-20 06:30N 40°51' E 014°16'0 0.0
2019-Aug-20 05:57N 40°51' E 014°16'0 0.0
2019-Aug-20 05:30N 40°51' E 014°16'0 0.2
2019-Aug-20 05:00N 40°50' E 014°16'2 3.9
2019-Aug-20 04:30N 40°49' E 014°17'4 8.0
2019-Aug-20 04:00N 40°45' E 014°15'4 8.1
2019-Aug-20 03:30N 40°42' E 014°13'611.3
2019-Aug-20 03:00N 40°37' E 014°09'714.0
2019-Aug-20 02:30N 40°30' E 014°11'715.0
2019-Aug-20 02:00N 40°23' E 014°16'815.3
2019-Aug-20 01:30N 40°16' E 014°20'815.4
2019-Aug-20 01:00N 40°10' E 014°25'815.3
2019-Aug-20 00:30N 40°03' E 014°30'815.4
2019-Aug-20 00:00N 39°56' E 014°35'2019.8
2019-Aug-19 23:00N 39°36' E 014°36'1716.2 320 / 81018.010.8 26.026.025.0
2019-Aug-19 21:56N 39°28' E 014°56'3315.5
2019-Aug-19 19:50N 38°60' E 015°16'515.5
2019-Aug-19 19:30N 38°55' E 015°19'815.5
2019-Aug-19 19:00N 38°48' E 015°23'815.4
2019-Aug-19 18:30N 38°41' E 015°28'815.5
2019-Aug-19 18:00N 38°35' E 015°33'815.3
2019-Aug-19 17:30N 38°28' E 015°37'815.3
2019-Aug-19 17:00N 38°21' E 015°42'612.0
2019-Aug-19 16:30N 38°15' E 015°40'612.1
2019-Aug-19 16:00N 38°12' E 015°34'0 0.3
2019-Aug-19 15:19N 38°12' E 015°33'0 0.0
2019-Aug-19 14:49N 38°12' E 015°33'0 0.0
2019-Aug-19 14:19N 38°12' E 015°33'0 0.0
2019-Aug-19 13:55N 38°12' E 015°33'0 0.0
2019-Aug-19 13:25N 38°12' E 015°33'0 0.0
2019-Aug-19 12:55N 38°12' E 015°33'0 0.0
2019-Aug-19 12:25N 38°12' E 015°33'0 0.0
2019-Aug-19 11:55N 38°12' E 015°33'0 0.0
2019-Aug-19 11:25N 38°12' E 015°33'0 0.0
2019-Aug-19 10:55N 38°12' E 015°33'0 0.0
2019-Aug-19 10:25N 38°12' E 015°33'0 0.0
2019-Aug-19 09:40N 38°12' E 015°33'0 0.0
2019-Aug-19 09:28N 38°12' E 015°33'0 0.0
2019-Aug-19 08:58N 38°12' E 015°33'0 0.0
2019-Aug-19 08:19N 38°12' E 015°33'0 0.0
2019-Aug-19 07:55N 38°12' E 015°33'0 0.0
2019-Aug-19 07:19N 38°12' E 015°33'0 0.0
2019-Aug-19 06:10N 38°12' E 015°33'0 0.0
2019-Aug-19 05:40N 38°12' E 015°33'0 0.4
2019-Aug-19 05:30N 38°12' E 015°34'3 5.3
2019-Aug-19 05:00N 38°12' E 015°37'612.2
2019-Aug-19 04:30N 38°06' E 015°36'714.3
2019-Aug-19 04:00N 37°59' E 015°35'815.2
2019-Aug-19 03:30N 37°52' E 015°34'916.9
2019-Aug-19 03:00N 37°43' E 015°33'916.5
2019-Aug-19 02:27N 37°34' E 015°31'715.8
2019-Aug-19 02:00N 37°27' E 015°30'815.5
2019-Aug-19 01:31N 37°19' E 015°29'815.4
2019-Aug-19 01:01N 37°12' E 015°28'815.6
2019-Aug-19 00:29N 37°04' E 015°27'1020.3
2019-Aug-19 00:00N 36°54' E 015°24'2814.4 270 / 141017.010.8 25.025.025.0
2019-Aug-18 22:02N 36°29' E 015°07'314.2
2019-Aug-18 21:49N 36°27' E 015°04'515.9
2019-Aug-18 21:29N 36°23' E 014°60'816.8
2019-Aug-18 21:00N 36°17' E 014°54'916.8
2019-Aug-18 20:28N 36°10' E 014°47'1316.7
2019-Aug-18 19:40N 35°59' E 014°37'316.0
2019-Aug-18 19:28N 35°57' E 014°35'4 0.4
2019-Aug-18 10:20N 35°54' E 014°31'4 8.4
2019-Aug-18 09:49N 35°55' E 014°36'616.6
2019-Aug-18 09:29N 35°57' E 014°43'917.0
2019-Aug-18 08:58N 36°00' E 014°53'816.9
2019-Aug-18 08:31N 35°60' E 015°02'17823.7
2019-Aug-18 01:00N 35°48' E 018°42'31712.2 010 / 251016.010.8 26.026.025.0
2019-Aug-16 23:00N 35°42' E 025°12'104 4.5 330 / 221012.010.8 25.025.025.0
2019-Aug-16 00:00N 36°30' E 027°06'7412.3 300 / 131009.0 5.4 23.023.025.0
2019-Aug-15 17:57N 37°13' E 025°50'612.7
2019-Aug-15 17:30N 37°17' E 025°46'713.1
2019-Aug-15 16:56N 37°23' E 025°40'613.6
2019-Aug-15 16:30N 37°27' E 025°35'713.7
2019-Aug-15 16:00N 37°31' E 025°28'713.0
2019-Aug-15 15:30N 37°31' E 025°19'3 7.1
2019-Aug-15 15:01N 37°28' E 025°19'0 0.0
2019-Aug-15 14:25N 37°28' E 025°19'0 0.0
2019-Aug-15 13:58N 37°28' E 025°19'0 0.0
2019-Aug-15 13:25N 37°28' E 025°19'0 0.0
2019-Aug-15 12:58N 37°28' E 025°19'0 0.0
2019-Aug-15 12:28N 37°28' E 025°19'0 0.0
2019-Aug-15 11:58N 37°28' E 025°19'0 0.0
2019-Aug-15 11:28N 37°28' E 025°19'0 0.0
2019-Aug-15 10:58N 37°28' E 025°19'0 0.0
2019-Aug-15 10:19N 37°28' E 025°19'0 0.0
2019-Aug-15 09:58N 37°28' E 025°19'0 0.0
2019-Aug-15 09:22N 37°28' E 025°19'0 0.0
2019-Aug-15 08:55N 37°28' E 025°19'0 0.0
2019-Aug-15 08:28N 37°28' E 025°19'0 0.0
2019-Aug-15 07:49N 37°28' E 025°19'0 0.0
2019-Aug-15 07:28N 37°28' E 025°19'0 0.0
2019-Aug-15 06:58N 37°28' E 025°19'0 0.0
2019-Aug-15 06:28N 37°28' E 025°19'0 0.0
2019-Aug-15 05:58N 37°28' E 025°19'0 0.0
2019-Aug-15 05:28N 37°28' E 025°19'0 0.0
2019-Aug-15 04:55N 37°28' E 025°19'0 0.0
2019-Aug-15 04:28N 37°28' E 025°19'0 0.0
2019-Aug-15 03:58N 37°28' E 025°19'0 0.0
2019-Aug-15 03:28N 37°28' E 025°19'1 1.7
2019-Aug-15 03:00N 37°27' E 025°18'3 5.7
2019-Aug-15 02:30N 37°28' E 025°15'510.0
2019-Aug-15 02:00N 37°29' E 025°09'510.2
2019-Aug-15 01:30N 37°31' E 025°03'510.2
2019-Aug-15 01:00N 37°32' E 024°56'7447.4
2019-Aug-15 01:00N 37°30' E 024°48'3 5.5 220 / 81008.010.8 23.023.025.0
2019-Aug-15 00:30N 37°32' E 024°49'2310.3
2019-Aug-14 22:18N 37°30' E 024°21'310.1
2019-Aug-14 22:00N 37°29' E 024°17'6 9.0
2019-Aug-14 21:21N 37°29' E 024°10'4 6.9
2019-Aug-14 20:49N 37°31' E 024°06'3 6.6
2019-Aug-14 20:24N 37°32' E 024°02'3 6.7
2019-Aug-14 19:59N 37°33' E 023°59'4 7.0
2019-Aug-14 19:29N 37°34' E 023°55'3 7.2
2019-Aug-14 19:00N 37°36' E 023°51'4 7.9
2019-Aug-14 18:30N 37°38' E 023°47'5 9.3
2019-Aug-14 18:00N 37°40' E 023°42'5 9.3
2019-Aug-14 17:30N 37°44' E 023°40'5 9.3
2019-Aug-14 17:00N 37°49' E 023°37'510.1
2019-Aug-14 16:30N 37°54' E 023°37'3 5.0
2019-Aug-14 15:59N 37°56' E 023°37'0 0.0
2019-Aug-14 15:29N 37°56' E 023°37'0 0.0
2019-Aug-14 14:59N 37°56' E 023°37'0 0.0
2019-Aug-14 14:29N 37°56' E 023°37'0 0.0
2019-Aug-14 13:59N 37°56' E 023°37'0 0.0
2019-Aug-14 13:29N 37°56' E 023°37'0 0.0
2019-Aug-14 12:59N 37°56' E 023°37'0 0.0
2019-Aug-14 12:29N 37°56' E 023°37'0 0.0
2019-Aug-14 11:59N 37°56' E 023°37'0 0.0
2019-Aug-14 11:29N 37°56' E 023°37'0 0.0
2019-Aug-14 10:56N 37°56' E 023°37'0 0.0
2019-Aug-14 10:29N 37°56' E 023°37'0 0.0
2019-Aug-14 09:53N 37°56' E 023°37'0 0.0
2019-Aug-14 09:29N 37°56' E 023°37'0 0.0
2019-Aug-14 08:59N 37°56' E 023°37'0 0.0
2019-Aug-14 08:29N 37°56' E 023°37'0 0.0
2019-Aug-14 07:59N 37°56' E 023°37'0 0.0
2019-Aug-14 07:26N 37°56' E 023°37'0 0.0
2019-Aug-14 06:56N 37°56' E 023°37'0 0.0
2019-Aug-14 06:29N 37°56' E 023°37'0 0.0
2019-Aug-14 05:59N 37°56' E 023°37'0 0.0
2019-Aug-14 05:29N 37°56' E 023°37'0 0.0
2019-Aug-14 04:50N 37°56' E 023°37'0 0.0
2019-Aug-14 04:29N 37°56' E 023°37'0 0.0
2019-Aug-14 03:53N 37°56' E 023°37'0 0.0
2019-Aug-14 03:30N 37°56' E 023°37'2 3.5
2019-Aug-14 03:01N 37°55' E 023°37'3 5.3
2019-Aug-14 02:30N 37°52' E 023°38'816.0
2019-Aug-14 02:00N 37°45' E 023°43'917.3
2019-Aug-14 01:30N 37°37' E 023°46'917.4
2019-Aug-14 01:00N 37°28' E 023°48'916.7
2019-Aug-14 00:30N 37°22' E 023°55'5020.1
2019-Aug-13 22:00N 36°48' E 024°42'   340 / 191008.010.8 26.026.025.0
Track history (hours):
 
Tides and Currents Weather Stations Pressure Air Temp Water Temp Dewpoint Dewpoint Depression Visibility Wind Speed Wind Dir Waves Ship Positions

Norwegian Jade

Last reported at 2019-Aug-23 22:00 UTC. Time now 2019-Aug-24 06:41 UTC.
Position N 36°18' E 021°48'.

Length 294 m; draft 8.5 m.

Type: Passenger vessel. MMSI: 308416000.

Wind from 200 at 5 knots

Barometer 1015.0 mb
Air temperature 26.0 ° C
Visibility: greater than 10.8 NM
Dewpoint 26.0 ° C
Water temperature 25.0 ° C

Date/timePositionNaut miles runAvg speedWind from/ knotsBaromVisibWave heightAir tempDewpointWater temp
2019-Aug-23 22:00N 36°18' E 021°48'29120.7 200 / 51015.010.8 26.026.025.0
2019-Aug-23 07:54N 37°49' E 016°01'820.4
2019-Aug-23 07:30N 37°51' E 015°51'1020.3
2019-Aug-23 07:01N 37°54' E 015°39'918.3
2019-Aug-23 06:30N 38°02' E 015°34'918.9
2019-Aug-23 06:01N 38°12' E 015°36'714.5
2019-Aug-23 05:31N 38°18' E 015°40'917.2
2019-Aug-23 05:00N 38°26' E 015°36'1120.7
2019-Aug-23 04:29N 38°36' E 015°30'1021.3
2019-Aug-23 04:00N 38°45' E 015°25'1121.1
2019-Aug-23 03:30N 38°54' E 015°17'6224.8
2019-Aug-23 01:00N 39°36' E 014°18'5 7.7 290 / 151019.010.8 25.025.025.0
2019-Aug-23 00:24N 39°41' E 014°18'820.7
2019-Aug-23 00:00N 39°46' E 014°11'1020.7
2019-Aug-22 23:31N 39°53' E 014°01'1020.9
2019-Aug-22 23:00N 40°01' E 013°52'1020.6
2019-Aug-22 22:31N 40°08' E 013°42'1020.8
2019-Aug-22 22:00N 40°15' E 013°33'1121.1
2019-Aug-22 21:30N 40°23' E 013°23'1121.5
2019-Aug-22 21:01N 40°31' E 013°13'1121.5
2019-Aug-22 20:31N 40°38' E 013°03'1121.5
2019-Aug-22 20:00N 40°46' E 012°53'1721.4
2019-Aug-22 19:13N 40°59' E 012°39'521.4
2019-Aug-22 19:00N 41°03' E 012°35'1121.4
2019-Aug-22 18:30N 41°11' E 012°27'1121.6
2019-Aug-22 18:00N 41°20' E 012°19'1121.6
2019-Aug-22 17:31N 41°29' E 012°11'1121.7
2019-Aug-22 17:01N 41°38' E 012°03'1121.4
2019-Aug-22 16:31N 41°47' E 011°55'1121.0
2019-Aug-22 16:00N 41°56' E 011°47'1019.2
2019-Aug-22 15:30N 42°04' E 011°41'4 0.5
2019-Aug-22 06:55N 42°06' E 011°46'0 0.0
2019-Aug-22 05:40N 42°06' E 011°46'0 0.0
2019-Aug-22 05:22N 42°06' E 011°46'2 0.9
2019-Aug-22 03:11N 42°06' E 011°44'2 9.4
2019-Aug-22 03:00N 42°05' E 011°42'612.2
2019-Aug-22 02:30N 42°01' E 011°36'816.3
2019-Aug-22 02:01N 42°01' E 011°25'816.6
2019-Aug-22 01:30N 42°03' E 011°14'916.7
2019-Aug-22 00:58N 42°04' E 011°02'916.5
2019-Aug-22 00:26N 42°09' E 010°52'717.1
2019-Aug-22 00:00N 42°14' E 010°46'917.6
2019-Aug-21 23:30N 42°21' E 010°38'917.8
2019-Aug-21 23:00N 42°27' E 010°30'9643.7
2019-Aug-21 23:00N 42°30' E 010°18'4 7.7 200 / 31019.010.8 25.025.025.0
2019-Aug-21 22:30N 42°33' E 010°21'917.3
2019-Aug-21 21:59N 42°39' E 010°11'817.0
2019-Aug-21 21:30N 42°44' E 010°03'816.7
2019-Aug-21 21:00N 42°53' E 010°02'918.0
2019-Aug-21 20:30N 43°02' E 010°04'917.8
2019-Aug-21 20:00N 43°10' E 010°06'917.6
2019-Aug-21 19:30N 43°19' E 010°08'917.4
2019-Aug-21 19:00N 43°28' E 010°10'612.4
2019-Aug-21 18:30N 43°32' E 010°16'1 2.8
2019-Aug-21 17:59N 43°33' E 010°18'0 0.0
2019-Aug-21 17:29N 43°33' E 010°18'0 0.0
2019-Aug-21 16:59N 43°33' E 010°18'0 0.0
2019-Aug-21 16:29N 43°33' E 010°18'0 0.0
2019-Aug-21 15:59N 43°33' E 010°18'0 0.0
2019-Aug-21 15:29N 43°33' E 010°18'0 0.0
2019-Aug-21 14:59N 43°33' E 010°18'0 0.0
2019-Aug-21 14:29N 43°33' E 010°18'0 0.0
2019-Aug-21 13:59N 43°33' E 010°18'0 0.0
2019-Aug-21 13:29N 43°33' E 010°18'0 0.0
2019-Aug-21 12:59N 43°33' E 010°18'0 0.0
2019-Aug-21 12:29N 43°33' E 010°18'0 0.0
2019-Aug-21 11:59N 43°33' E 010°18'0 0.0
2019-Aug-21 11:29N 43°33' E 010°18'0 0.0
2019-Aug-21 10:59N 43°33' E 010°18'0 0.0
2019-Aug-21 10:29N 43°33' E 010°18'0 0.0
2019-Aug-21 09:59N 43°33' E 010°18'0 0.0
2019-Aug-21 09:29N 43°33' E 010°18'0 0.0
2019-Aug-21 08:59N 43°33' E 010°18'0 0.0
2019-Aug-21 08:29N 43°33' E 010°18'0 0.0
2019-Aug-21 07:59N 43°33' E 010°18'0 0.0
2019-Aug-21 07:29N 43°33' E 010°18'0 0.0
2019-Aug-21 06:59N 43°33' E 010°18'0 0.0
2019-Aug-21 06:29N 43°33' E 010°18'0 0.3
2019-Aug-21 06:01N 43°33' E 010°18'3 5.7
2019-Aug-21 05:31N 43°31' E 010°15'917.2
2019-Aug-21 05:01N 43°23' E 010°10'1122.4
2019-Aug-21 04:31N 43°12' E 010°07'1223.1
2019-Aug-21 04:01N 43°01' E 010°05'1223.0
2019-Aug-21 03:30N 42°50' E 010°02'918.1
2019-Aug-21 03:00N 42°41' E 010°06'1121.2
2019-Aug-21 02:31N 42°35' E 010°18'1020.5
2019-Aug-21 02:01N 42°28' E 010°28'1121.0
2019-Aug-21 01:31N 42°21' E 010°38'1020.9
2019-Aug-21 01:00N 42°14' E 010°48'8495.7
2019-Aug-21 01:00N 42°06' E 010°48'815.5 100 / 51019.0 24.024.025.0
2019-Aug-21 00:31N 42°06' E 010°58'1121.3
2019-Aug-21 00:00N 41°58' E 011°08'1021.2
2019-Aug-20 23:31N 41°51' E 011°18'1121.2
2019-Aug-20 23:01N 41°44' E 011°29'1121.1
2019-Aug-20 22:31N 41°37' E 011°39'1121.1
2019-Aug-20 22:01N 41°30' E 011°50'1121.1
2019-Aug-20 21:31N 41°23' E 012°00'1121.0
2019-Aug-20 21:01N 41°16' E 012°11'1020.9
2019-Aug-20 20:31N 41°09' E 012°21'1020.8
2019-Aug-20 20:00N 41°02' E 012°31'2020.5
2019-Aug-20 19:02N 40°49' E 012°52'020.9
2019-Aug-20 19:00N 40°49' E 012°53'1020.6
2019-Aug-20 18:31N 40°45' E 013°05'1020.5
2019-Aug-20 18:00N 40°41' E 013°18'1720.3
2019-Aug-20 17:11N 40°39' E 013°40'320.1
2019-Aug-20 17:00N 40°39' E 013°44'1020.1
2019-Aug-20 16:30N 40°39' E 013°58'918.9
2019-Aug-20 16:01N 40°43' E 014°09'917.0
2019-Aug-20 15:30N 40°49' E 014°17'2 3.7
2019-Aug-20 15:00N 40°51' E 014°16'0 0.0
2019-Aug-20 14:30N 40°51' E 014°16'0 0.0
2019-Aug-20 14:00N 40°51' E 014°16'0 0.0
2019-Aug-20 13:27N 40°51' E 014°16'0 0.0
2019-Aug-20 12:57N 40°51' E 014°16'0 0.0
2019-Aug-20 12:30N 40°51' E 014°16'0 0.0
2019-Aug-20 12:00N 40°51' E 014°16'0 0.0
2019-Aug-20 11:30N 40°51' E 014°16'0 0.0
2019-Aug-20 11:00N 40°51' E 014°16'0 0.0
2019-Aug-20 10:30N 40°51' E 014°16'0 0.0
2019-Aug-20 10:00N 40°51' E 014°16'0 0.0
2019-Aug-20 09:30N 40°51' E 014°16'0 0.0
2019-Aug-20 09:00N 40°51' E 014°16'0 0.0
2019-Aug-20 08:30N 40°51' E 014°16'0 0.0
2019-Aug-20 08:00N 40°51' E 014°16'0 0.0
2019-Aug-20 07:30N 40°51' E 014°16'0 0.0
2019-Aug-20 07:00N 40°51' E 014°16'0 0.0
2019-Aug-20 06:30N 40°51' E 014°16'0 0.0
2019-Aug-20 05:57N 40°51' E 014°16'0 0.0
2019-Aug-20 05:30N 40°51' E 014°16'0 0.2
2019-Aug-20 05:00N 40°50' E 014°16'2 3.9
2019-Aug-20 04:30N 40°49' E 014°17'4 8.0
2019-Aug-20 04:00N 40°45' E 014°15'4 8.1
2019-Aug-20 03:30N 40°42' E 014°13'611.3
2019-Aug-20 03:00N 40°37' E 014°09'714.0
2019-Aug-20 02:30N 40°30' E 014°11'715.0
2019-Aug-20 02:00N 40°23' E 014°16'815.3
2019-Aug-20 01:30N 40°16' E 014°20'815.4
2019-Aug-20 01:00N 40°10' E 014°25'815.3
2019-Aug-20 00:30N 40°03' E 014°30'815.4
2019-Aug-20 00:00N 39°56' E 014°35'2019.8
2019-Aug-19 23:00N 39°36' E 014°36'1716.2 320 / 81018.010.8 26.026.025.0
2019-Aug-19 21:56N 39°28' E 014°56'3315.5
2019-Aug-19 19:50N 38°60' E 015°16'515.5
2019-Aug-19 19:30N 38°55' E 015°19'815.5
2019-Aug-19 19:00N 38°48' E 015°23'815.4
2019-Aug-19 18:30N 38°41' E 015°28'815.5
2019-Aug-19 18:00N 38°35' E 015°33'815.3
2019-Aug-19 17:30N 38°28' E 015°37'815.3
2019-Aug-19 17:00N 38°21' E 015°42'612.0
2019-Aug-19 16:30N 38°15' E 015°40'612.1
2019-Aug-19 16:00N 38°12' E 015°34'0 0.3
2019-Aug-19 15:19N 38°12' E 015°33'0 0.0
2019-Aug-19 14:49N 38°12' E 015°33'0 0.0
2019-Aug-19 14:19N 38°12' E 015°33'0 0.0
2019-Aug-19 13:55N 38°12' E 015°33'0 0.0
2019-Aug-19 13:25N 38°12' E 015°33'0 0.0
2019-Aug-19 12:55N 38°12' E 015°33'0 0.0
2019-Aug-19 12:25N 38°12' E 015°33'0 0.0
2019-Aug-19 11:55N 38°12' E 015°33'0 0.0
2019-Aug-19 11:25N 38°12' E 015°33'0 0.0
2019-Aug-19 10:55N 38°12' E 015°33'0 0.0
2019-Aug-19 10:25N 38°12' E 015°33'0 0.0
2019-Aug-19 09:40N 38°12' E 015°33'0 0.0
2019-Aug-19 09:28N 38°12' E 015°33'0 0.0
2019-Aug-19 08:58N 38°12' E 015°33'0 0.0
2019-Aug-19 08:19N 38°12' E 015°33'0 0.0
2019-Aug-19 07:55N 38°12' E 015°33'0 0.0
2019-Aug-19 07:19N 38°12' E 015°33'0 0.0
2019-Aug-19 06:10N 38°12' E 015°33'0 0.0
2019-Aug-19 05:40N 38°12' E 015°33'0 0.4
2019-Aug-19 05:30N 38°12' E 015°34'3 5.3
2019-Aug-19 05:00N 38°12' E 015°37'612.2
2019-Aug-19 04:30N 38°06' E 015°36'714.3
2019-Aug-19 04:00N 37°59' E 015°35'815.2
2019-Aug-19 03:30N 37°52' E 015°34'916.9
2019-Aug-19 03:00N 37°43' E 015°33'916.5
2019-Aug-19 02:27N 37°34' E 015°31'715.8
2019-Aug-19 02:00N 37°27' E 015°30'815.5
2019-Aug-19 01:31N 37°19' E 015°29'815.4
2019-Aug-19 01:01N 37°12' E 015°28'815.6
2019-Aug-19 00:29N 37°04' E 015°27'1020.3
2019-Aug-19 00:00N 36°54' E 015°24'2814.4 270 / 141017.010.8 25.025.025.0
2019-Aug-18 22:02N 36°29' E 015°07'314.2
2019-Aug-18 21:49N 36°27' E 015°04'515.9
2019-Aug-18 21:29N 36°23' E 014°60'816.8
2019-Aug-18 21:00N 36°17' E 014°54'916.8
2019-Aug-18 20:28N 36°10' E 014°47'1316.7
2019-Aug-18 19:40N 35°59' E 014°37'316.0
2019-Aug-18 19:28N 35°57' E 014°35'4 0.4
2019-Aug-18 10:20N 35°54' E 014°31'4 8.4
2019-Aug-18 09:49N 35°55' E 014°36'616.6
2019-Aug-18 09:29N 35°57' E 014°43'917.0
2019-Aug-18 08:58N 36°00' E 014°53'816.9
2019-Aug-18 08:31N 35°60' E 015°02'17823.7
2019-Aug-18 01:00N 35°48' E 018°42'31712.2 010 / 251016.010.8 26.026.025.0
2019-Aug-16 23:00N 35°42' E 025°12'104 4.5 330 / 221012.010.8 25.025.025.0
2019-Aug-16 00:00N 36°30' E 027°06'7412.3 300 / 131009.0 5.4 23.023.025.0
2019-Aug-15 17:57N 37°13' E 025°50'612.7
2019-Aug-15 17:30N 37°17' E 025°46'713.1
2019-Aug-15 16:56N 37°23' E 025°40'613.6
2019-Aug-15 16:30N 37°27' E 025°35'713.7
2019-Aug-15 16:00N 37°31' E 025°28'713.0
2019-Aug-15 15:30N 37°31' E 025°19'3 7.1
2019-Aug-15 15:01N 37°28' E 025°19'0 0.0
2019-Aug-15 14:25N 37°28' E 025°19'0 0.0
2019-Aug-15 13:58N 37°28' E 025°19'0 0.0
2019-Aug-15 13:25N 37°28' E 025°19'0 0.0
2019-Aug-15 12:58N 37°28' E 025°19'0 0.0
2019-Aug-15 12:28N 37°28' E 025°19'0 0.0
2019-Aug-15 11:58N 37°28' E 025°19'0 0.0
2019-Aug-15 11:28N 37°28' E 025°19'0 0.0
2019-Aug-15 10:58N 37°28' E 025°19'0 0.0
2019-Aug-15 10:19N 37°28' E 025°19'0 0.0
2019-Aug-15 09:58N 37°28' E 025°19'0 0.0
2019-Aug-15 09:22N 37°28' E 025°19'0 0.0
2019-Aug-15 08:55N 37°28' E 025°19'0 0.0
2019-Aug-15 08:28N 37°28' E 025°19'0 0.0
2019-Aug-15 07:49N 37°28' E 025°19'0 0.0
2019-Aug-15 07:28N 37°28' E 025°19'0 0.0
2019-Aug-15 06:58N 37°28' E 025°19'0 0.0
2019-Aug-15 06:28N 37°28' E 025°19'0 0.0
2019-Aug-15 05:58N 37°28' E 025°19'0 0.0
2019-Aug-15 05:28N 37°28' E 025°19'0 0.0
2019-Aug-15 04:55N 37°28' E 025°19'0 0.0
2019-Aug-15 04:28N 37°28' E 025°19'0 0.0
2019-Aug-15 03:58N 37°28' E 025°19'0 0.0
2019-Aug-15 03:28N 37°28' E 025°19'1 1.7
2019-Aug-15 03:00N 37°27' E 025°18'3 5.7
2019-Aug-15 02:30N 37°28' E 025°15'510.0
2019-Aug-15 02:00N 37°29' E 025°09'510.2
2019-Aug-15 01:30N 37°31' E 025°03'510.2
2019-Aug-15 01:00N 37°32' E 024°56'7447.4
2019-Aug-15 01:00N 37°30' E 024°48'3 5.5 220 / 81008.010.8 23.023.025.0
2019-Aug-15 00:30N 37°32' E 024°49'2310.3
2019-Aug-14 22:18N 37°30' E 024°21'310.1
2019-Aug-14 22:00N 37°29' E 024°17'6 9.0
2019-Aug-14 21:21N 37°29' E 024°10'4 6.9
2019-Aug-14 20:49N 37°31' E 024°06'3 6.6
2019-Aug-14 20:24N 37°32' E 024°02'3 6.7
2019-Aug-14 19:59N 37°33' E 023°59'4 7.0
2019-Aug-14 19:29N 37°34' E 023°55'3 7.2
2019-Aug-14 19:00N 37°36' E 023°51'4 7.9
2019-Aug-14 18:30N 37°38' E 023°47'5 9.3
2019-Aug-14 18:00N 37°40' E 023°42'5 9.3
2019-Aug-14 17:30N 37°44' E 023°40'5 9.3
2019-Aug-14 17:00N 37°49' E 023°37'510.1
2019-Aug-14 16:30N 37°54' E 023°37'3 5.0
2019-Aug-14 15:59N 37°56' E 023°37'0 0.0
2019-Aug-14 15:29N 37°56' E 023°37'0 0.0
2019-Aug-14 14:59N 37°56' E 023°37'0 0.0
2019-Aug-14 14:29N 37°56' E 023°37'0 0.0
2019-Aug-14 13:59N 37°56' E 023°37'0 0.0
2019-Aug-14 13:29N 37°56' E 023°37'0 0.0
2019-Aug-14 12:59N 37°56' E 023°37'0 0.0
2019-Aug-14 12:29N 37°56' E 023°37'0 0.0
2019-Aug-14 11:59N 37°56' E 023°37'0 0.0
2019-Aug-14 11:29N 37°56' E 023°37'0 0.0
2019-Aug-14 10:56N 37°56' E 023°37'0 0.0
2019-Aug-14 10:29N 37°56' E 023°37'0 0.0
2019-Aug-14 09:53N 37°56' E 023°37'0 0.0
2019-Aug-14 09:29N 37°56' E 023°37'0 0.0
2019-Aug-14 08:59N 37°56' E 023°37'0 0.0
2019-Aug-14 08:29N 37°56' E 023°37'0 0.0
2019-Aug-14 07:59N 37°56' E 023°37'0 0.0
2019-Aug-14 07:26N 37°56' E 023°37'0 0.0
2019-Aug-14 06:56N 37°56' E 023°37'0 0.0
2019-Aug-14 06:29N 37°56' E 023°37'0 0.0
2019-Aug-14 05:59N 37°56' E 023°37'0 0.0
2019-Aug-14 05:29N 37°56' E 023°37'0 0.0
2019-Aug-14 04:50N 37°56' E 023°37'0 0.0
2019-Aug-14 04:29N 37°56' E 023°37'0 0.0
2019-Aug-14 03:53N 37°56' E 023°37'0 0.0
2019-Aug-14 03:30N 37°56' E 023°37'2 3.5
2019-Aug-14 03:01N 37°55' E 023°37'3 5.3
2019-Aug-14 02:30N 37°52' E 023°38'816.0
2019-Aug-14 02:00N 37°45' E 023°43'917.3
2019-Aug-14 01:30N 37°37' E 023°46'917.4
2019-Aug-14 01:00N 37°28' E 023°48'916.7
2019-Aug-14 00:30N 37°22' E 023°55'5020.1
2019-Aug-13 22:00N 36°48' E 024°42'   340 / 191008.010.8 26.026.025.0

Dump ship's entire track history